createdAt,value
2022-09-28T00:00:11.853Z,99326.34
2022-09-28T00:02:42.470Z,99319.91
2022-09-28T00:05:12.661Z,99321.66
2022-09-28T00:07:41.975Z,99321.75
2022-09-28T00:10:12.392Z,99327.78
2022-09-28T00:12:40.388Z,99321.19
2022-09-28T00:15:09.419Z,99327.31
2022-09-28T00:17:37.347Z,99326.44
2022-09-28T00:20:06.312Z,99328.19
2022-09-28T00:22:34.209Z,99327.66
2022-09-28T00:25:02.139Z,99328.56
2022-09-28T00:27:31.399Z,99325.97
2022-09-28T00:29:59.947Z,99332.16
2022-09-28T00:32:28.556Z,99327.75
2022-09-28T00:34:57.632Z,99332.94
2022-09-28T00:37:25.466Z,99327.81
2022-09-28T00:39:53.415Z,99324.06
2022-09-28T00:42:23.415Z,99332.81
2022-09-28T00:44:53.627Z,99325.03
2022-09-28T00:47:49.812Z,99318.34
2022-09-28T00:50:23.132Z,99323.53
2022-09-28T00:52:54.512Z,99320.03
2022-09-28T00:55:28.023Z,99316.28
2022-09-28T00:57:58.908Z,99324.44
2022-09-28T01:00:28.417Z,99313.69
2022-09-28T01:02:56.531Z,99318.59
2022-09-28T01:05:24.951Z,99315.41
2022-09-28T01:07:52.874Z,99314.53
2022-09-28T01:10:20.724Z,99314.06
2022-09-28T01:12:48.623Z,99315.97
2022-09-28T01:15:16.769Z,99306.09
2022-09-28T01:17:55.290Z,99303.25
2022-09-28T01:20:29.139Z,99305.13
2022-09-28T01:23:18.991Z,99308.44
2022-09-28T01:25:52.514Z,99311.47
2022-09-28T01:28:22.809Z,99307.66
2022-09-28T01:30:58.012Z,99305.94
2022-09-28T01:33:29.097Z,99306.09
2022-09-28T01:36:00.770Z,99305.91
2022-09-28T01:38:31.422Z,99302.59
2022-09-28T01:41:00.050Z,99312.19
2022-09-28T01:43:31.529Z,99308.50
2022-09-28T01:46:02.036Z,99306.75
2022-09-28T01:48:33.442Z,99302.41
2022-09-28T01:51:06.828Z,99296.56
2022-09-28T01:53:38.459Z,99292.19
2022-09-28T01:56:12.515Z,99301.81
2022-09-28T01:58:45.747Z,99300.22
2022-09-28T02:01:17.211Z,99301.13
2022-09-28T02:03:50.216Z,99301.13
2022-09-28T02:06:19.012Z,99305.00
2022-09-28T02:08:51.891Z,99307.00
2022-09-28T02:11:21.760Z,99304.34
2022-09-28T02:13:56.784Z,99299.56
2022-09-28T02:16:31.403Z,99300.28
2022-09-28T02:18:59.538Z,99306.56
2022-09-28T02:21:29.237Z,99301.31
2022-09-28T02:23:59.771Z,99301.31
2022-09-28T02:26:31.671Z,99309.09
2022-09-28T02:29:01.123Z,99307.50
2022-09-28T02:31:29.426Z,99309.19
2022-09-28T02:33:58.558Z,99305.91
2022-09-28T02:36:27.070Z,99312.13
2022-09-28T02:38:55.334Z,99312.88
2022-09-28T02:41:31.558Z,99317.22
2022-09-28T02:44:08.643Z,99318.72
2022-09-28T02:46:43.451Z,99314.38
2022-09-28T02:49:26.429Z,99317.72
2022-09-28T02:52:06.637Z,99327.22
2022-09-28T02:54:52.751Z,99326.25
2022-09-28T02:57:29.380Z,99328.00
2022-09-28T03:00:05.541Z,99320.88
2022-09-28T03:02:36.683Z,99316.66
2022-09-28T03:05:13.474Z,99314.66
2022-09-28T03:07:44.851Z,99311.28
2022-09-28T03:10:16.738Z,99308.03
2022-09-28T03:12:46.884Z,99309.72
2022-09-28T03:15:22.564Z,99304.59
2022-09-28T03:17:50.726Z,99301.13
2022-09-28T03:20:19.024Z,99307.34
2022-09-28T03:23:05.927Z,99295.34
2022-09-28T03:25:34.883Z,99305.50
2022-09-28T03:28:03.210Z,99304.91
2022-09-28T03:30:36.135Z,99293.59
2022-09-28T03:33:04.395Z,99300.56
2022-09-28T03:35:33.637Z,99300.47
2022-09-28T03:38:01.509Z,99298.63
2022-09-28T03:40:31.753Z,99300.72
2022-09-28T03:43:01.136Z,99303.31
2022-09-28T03:45:29.255Z,99307.66
2022-09-28T03:47:58.726Z,99307.75
2022-09-28T03:50:26.635Z,99309.16
2022-09-28T03:52:54.535Z,99302.22
2022-09-28T03:55:22.392Z,99305.25
2022-09-28T03:57:55.635Z,99303.81
2022-09-28T04:00:23.874Z,99303.81
2022-09-28T04:02:51.858Z,99308.75
2022-09-28T04:05:21.077Z,99298.31
2022-09-28T04:07:48.998Z,99300.06
2022-09-28T04:10:17.281Z,99297.53
2022-09-28T04:12:45.906Z,99295.09
2022-09-28T04:15:15.615Z,99303.44
2022-09-28T04:17:44.816Z,99301.63
2022-09-28T04:20:27.251Z,99292.09
2022-09-28T04:23:04.280Z,99291.38
2022-09-28T04:25:32.297Z,99301.63
2022-09-28T04:28:17.452Z,99297.22
2022-09-28T04:30:47.517Z,99298.25
2022-09-28T04:33:15.370Z,99294.94
2022-09-28T04:35:44.604Z,99293.09
2022-09-28T04:38:12.515Z,99299.22
2022-09-28T04:40:41.893Z,99300.13
2022-09-28T04:43:09.769Z,99308.94
2022-09-28T04:45:37.741Z,99312.97
2022-09-28T04:48:09.662Z,99306.81
2022-09-28T04:50:55.822Z,99309.38
2022-09-28T04:53:24.269Z,99309.59
2022-09-28T04:55:59.490Z,99305.91
2022-09-28T04:58:28.130Z,99308.38
2022-09-28T05:00:59.815Z,99311.03
2022-09-28T05:03:51.219Z,99310.03
2022-09-28T05:06:35.858Z,99306.88
2022-09-28T05:09:06.944Z,99306.03
2022-09-28T05:11:34.774Z,99310.19
2022-09-28T05:14:03.088Z,99312.72
2022-09-28T05:16:33.654Z,99314.41
2022-09-28T05:19:20.379Z,99312.56
2022-09-28T05:21:49.815Z,99310.81
2022-09-28T05:24:17.737Z,99311.03
2022-09-28T05:26:51.002Z,99320.28
2022-09-28T05:29:19.755Z,99313.63
2022-09-28T05:31:50.286Z,99315.31
2022-09-28T05:34:23.697Z,99308.13
2022-09-28T05:36:52.978Z,99301.44
2022-09-28T05:39:21.076Z,99304.84
2022-09-28T05:41:48.963Z,99307.44
2022-09-28T05:44:16.982Z,99302.34
2022-09-28T05:46:45.313Z,99304.75
2022-09-28T05:49:13.975Z,99301.34
2022-09-28T05:51:41.824Z,99299.75
2022-09-28T05:54:11.810Z,99309.13
2022-09-28T05:56:42.801Z,99312.63
2022-09-28T05:59:12.065Z,99308.13
2022-09-28T06:01:40.172Z,99314.31
2022-09-28T06:04:10.415Z,99309.78
2022-09-28T06:06:38.832Z,99315.16
2022-09-28T06:09:07.110Z,99313.56
2022-09-28T06:11:53.367Z,99317.25
2022-09-28T06:14:28.571Z,99320.50
2022-09-28T06:16:56.454Z,99321.41
2022-09-28T06:19:24.410Z,99318.81
2022-09-28T06:22:10.651Z,99324.94
2022-09-28T06:24:45.988Z,99322.00
2022-09-28T06:27:15.211Z,99329.50
2022-09-28T06:29:43.415Z,99330.66
2022-09-28T06:32:12.357Z,99331.50
2022-09-28T06:34:42.764Z,99325.69
2022-09-28T06:37:10.705Z,99331.31
2022-09-28T06:39:38.624Z,99330.34
2022-09-28T06:42:06.820Z,99331.16
2022-09-28T06:44:54.490Z,99330.84
2022-09-28T06:47:43.390Z,99336.94
2022-09-28T06:50:35.884Z,99333.88
2022-09-28T06:53:28.210Z,99333.81
2022-09-28T06:56:03.288Z,99349.81
2022-09-28T06:58:32.294Z,99347.13
2022-09-28T07:01:02.493Z,99349.69
2022-09-28T07:03:37.262Z,99343.28
2022-09-28T07:06:47.942Z,99349.84
2022-09-28T07:09:37.291Z,99349.72
2022-09-28T07:12:13.399Z,99354.53
2022-09-28T07:15:02.332Z,99346.41
2022-09-28T07:17:35.334Z,99345.50
2022-09-28T07:20:18.443Z,99350.69
2022-09-28T07:22:47.905Z,99354.69
2022-09-28T07:25:20.330Z,99351.38
2022-09-28T07:28:01.484Z,99352.94
2022-09-28T07:31:04.993Z,99356.31
2022-09-28T07:34:00.557Z,99347.41
2022-09-28T07:36:35.107Z,99356.47
2022-09-28T07:39:03.854Z,99353.66
2022-09-28T07:41:33.450Z,99348.88
2022-09-28T07:44:06.496Z,99343.28
2022-09-28T07:46:36.910Z,99348.09
2022-09-28T07:49:25.456Z,99343.44
2022-09-28T07:52:14.273Z,99334.47
2022-09-28T07:55:07.514Z,99329.09
2022-09-28T07:57:56.300Z,99331.19
2022-09-28T08:00:48.349Z,99332.94
2022-09-28T08:03:18.006Z,99325.94
2022-09-28T08:05:48.047Z,99333.34
2022-09-28T08:08:16.266Z,99330.84
2022-09-28T08:10:47.295Z,99330.78
2022-09-28T08:13:33.878Z,99329.53
2022-09-28T08:16:34.223Z,99330.59
2022-09-28T08:19:12.299Z,99331.88
2022-09-28T08:21:46.182Z,99333.22
2022-09-28T08:24:16.528Z,99331.81
2022-09-28T08:26:45.442Z,99335.72
2022-09-28T08:29:16.916Z,99330.56
2022-09-28T08:32:01.590Z,99326.28
2022-09-28T08:34:36.690Z,99313.88
2022-09-28T08:37:09.712Z,99316.94
2022-09-28T08:40:09.420Z,99305.72
2022-09-28T08:42:48.984Z,99313.81
2022-09-28T08:45:52.352Z,99317.75
2022-09-28T08:49:13.530Z,99312.19
2022-09-28T08:52:00.719Z,99313.88
2022-09-28T08:54:56.718Z,99310.38
2022-09-28T08:57:35.275Z,99311.81
2022-09-28T09:00:09.596Z,99322.19
2022-09-28T09:02:40.541Z,99314.50
2022-09-28T09:05:15.922Z,99313.78
2022-09-28T09:08:23.353Z,99323.75
2022-09-28T09:10:54.198Z,99312.66
2022-09-28T09:13:43.183Z,99319.75
2022-09-28T09:16:19.024Z,99316.88
2022-09-28T09:19:17.395Z,99319.53
2022-09-28T09:22:11.708Z,99320.88
2022-09-28T09:24:44.807Z,99324.44
2022-09-28T09:27:36.783Z,99336.34
2022-09-28T09:30:07.548Z,99329.53
2022-09-28T09:32:41.170Z,99326.59
2022-09-28T09:35:23.410Z,99336.59
2022-09-28T09:38:07.058Z,99334.31
2022-09-28T09:41:00.807Z,99335.31
2022-09-28T09:44:19.955Z,99331.28
2022-09-28T09:47:00.693Z,99335.09
2022-09-28T09:49:40.375Z,99335.22
2022-09-28T09:52:14.608Z,99340.38
2022-09-28T09:54:45.783Z,99341.03
2022-09-28T09:57:30.376Z,99332.63
2022-09-28T10:00:28.996Z,99337.97
2022-09-28T10:03:18.366Z,99347.44
2022-09-28T10:05:49.895Z,99342.63
2022-09-28T10:08:19.949Z,99337.53
2022-09-28T10:10:50.847Z,99342.63
2022-09-28T10:13:21.000Z,99356.31
2022-09-28T10:15:51.767Z,99352.91
2022-09-28T10:18:30.802Z,99350.13
2022-09-28T10:21:14.267Z,99350.34
2022-09-28T10:24:03.260Z,99363.09
2022-09-28T10:26:36.394Z,99356.84
2022-09-28T10:29:07.187Z,99361.84
2022-09-28T10:31:38.432Z,99365.75
2022-09-28T10:34:14.796Z,99360.19
2022-09-28T10:36:55.378Z,99359.00
2022-09-28T10:39:36.618Z,99361.06
2022-09-28T10:42:07.799Z,99367.69
2022-09-28T10:44:49.936Z,99365.25
2022-09-28T10:47:48.687Z,99366.59
2022-09-28T10:50:22.422Z,99367.06
2022-09-28T10:52:54.656Z,99362.59
2022-09-28T10:55:42.495Z,99365.94
2022-09-28T10:58:25.696Z,99363.31
2022-09-28T11:00:54.541Z,99363.31
2022-09-28T11:03:27.052Z,99368.81
2022-09-28T11:05:59.579Z,99372.56
2022-09-28T11:08:31.297Z,99368.81
2022-09-28T11:11:10.211Z,99361.44
2022-09-28T11:13:43.647Z,99358.53
2022-09-28T11:16:29.616Z,99357.75
2022-09-28T11:19:05.207Z,99363.81
2022-09-28T11:21:43.103Z,99366.13
2022-09-28T11:24:21.134Z,99372.56
2022-09-28T11:26:52.531Z,99371.94
2022-09-28T11:29:26.751Z,99363.13
2022-09-28T11:32:16.101Z,99364.41
2022-09-28T11:35:25.997Z,99363.09
2022-09-28T11:38:19.602Z,99359.69
2022-09-28T11:41:32.471Z,99366.22
2022-09-28T11:44:16.229Z,99359.59
2022-09-28T11:46:52.519Z,99367.94
2022-09-28T11:49:28.646Z,99356.75
2022-09-28T11:52:00.838Z,99363.31
2022-09-28T11:54:33.705Z,99358.44
2022-09-28T11:57:05.039Z,99359.97
2022-09-28T11:59:35.626Z,99356.41
2022-09-28T12:02:11.121Z,99365.00
2022-09-28T12:04:46.449Z,99362.31
2022-09-28T12:07:19.950Z,99357.72
2022-09-28T12:09:52.989Z,99364.41
2022-09-28T12:12:26.029Z,99356.81
2022-09-28T12:14:58.613Z,99361.38
2022-09-28T12:17:30.084Z,99367.69
2022-09-28T12:20:02.268Z,99354.91
2022-09-28T12:22:36.041Z,99359.13
2022-09-28T12:25:05.457Z,99354.16
2022-09-28T12:27:39.047Z,99358.75
2022-09-28T12:30:14.147Z,99349.78
2022-09-28T12:32:45.586Z,99348.91
2022-09-28T12:35:16.133Z,99365.34
2022-09-28T12:37:58.632Z,99357.13
2022-09-28T12:40:37.228Z,99375.47
2022-09-28T12:43:21.358Z,99383.50
2022-09-28T12:46:12.357Z,99390.91
2022-09-28T12:50:20.136Z,99405.41
2022-09-28T12:52:00.096Z,99409.31
2022-09-28T12:54:44.216Z,99407.63
2022-09-28T12:57:39.298Z,99411.47
2022-09-28T13:00:10.518Z,99424.75
2022-09-28T13:03:00.835Z,99429.66
2022-09-28T13:05:41.306Z,99430.63
2022-09-28T13:08:12.188Z,99427.63
2022-09-28T13:10:42.982Z,99437.97
2022-09-28T13:13:23.129Z,99439.94
2022-09-28T13:15:56.360Z,99437.97
2022-09-28T13:18:29.275Z,99432.22
2022-09-28T13:21:04.178Z,99446.31
2022-09-28T13:23:35.727Z,99437.56
2022-09-28T13:26:23.809Z,99446.81
2022-09-28T13:28:54.738Z,99451.19
2022-09-28T13:31:30.899Z,99445.69
2022-09-28T13:34:01.469Z,99445.63
2022-09-28T13:36:37.911Z,99442.31
2022-09-28T13:39:48.685Z,99453.16
2022-09-28T13:42:41.504Z,99441.28
2022-09-28T13:45:18.891Z,99439.16
2022-09-28T13:47:59.656Z,99447.47
2022-09-28T13:50:39.511Z,99433.16
2022-09-28T13:53:16.401Z,99434.16
2022-09-28T13:55:54.755Z,99435.13
2022-09-28T13:58:26.097Z,99427.53
2022-09-28T14:00:57.890Z,99417.22
2022-09-28T14:03:28.309Z,99418.44
2022-09-28T14:06:09.577Z,99422.34
2022-09-28T14:08:45.618Z,99425.13
2022-09-28T14:11:26.343Z,99423.81
2022-09-28T14:14:05.837Z,99429.72
2022-09-28T14:16:35.198Z,99421.13
2022-09-28T14:19:06.958Z,99427.47
2022-09-28T14:22:01.696Z,99424.94
2022-09-28T14:24:46.207Z,99425.66
2022-09-28T14:27:42.780Z,99414.94
2022-09-28T14:30:26.884Z,99413.28
2022-09-28T14:32:57.508Z,99420.53
2022-09-28T14:35:29.665Z,99416.59
2022-09-28T14:38:18.799Z,99424.25
2022-09-28T14:41:10.580Z,99429.19
2022-09-28T14:43:53.923Z,99435.09
2022-09-28T14:46:37.392Z,99446.38
2022-09-28T14:49:07.284Z,99442.53
2022-09-28T14:52:06.671Z,99455.69
2022-09-28T14:54:45.264Z,99459.25
2022-09-28T14:57:33.973Z,99462.34
2022-09-28T15:00:10.493Z,99467.41
2022-09-28T15:02:40.291Z,99467.53
2022-09-28T15:05:17.193Z,99468.22
2022-09-28T15:07:47.960Z,99472.25
2022-09-28T15:10:27.736Z,99471.78
2022-09-28T15:12:57.201Z,99469.28
2022-09-28T15:15:32.194Z,99461.69
2022-09-28T15:18:16.415Z,99470.34
2022-09-28T15:20:47.110Z,99467.59
2022-09-28T15:23:34.810Z,99465.78
2022-09-28T15:26:04.102Z,99469.00
2022-09-28T15:28:32.102Z,99471.19
2022-09-28T15:31:01.130Z,99476.03
2022-09-28T15:33:49.324Z,99472.59
2022-09-28T15:36:21.127Z,99464.66
2022-09-28T15:38:56.844Z,99470.06
2022-09-28T15:41:25.736Z,99464.38
2022-09-28T15:44:23.494Z,99458.69
2022-09-28T15:46:52.135Z,99451.75
2022-09-28T15:49:26.936Z,99433.91
2022-09-28T15:51:56.536Z,99423.75
2022-09-28T15:54:26.319Z,99422.56
2022-09-28T15:56:57.731Z,99428.78
2022-09-28T15:59:31.838Z,99438.69
2022-09-28T16:02:08.277Z,99449.19
2022-09-28T16:04:40.545Z,99435.00
2022-09-28T16:07:24.381Z,99450.94
2022-09-28T16:10:01.626Z,99445.44
2022-09-28T16:12:41.208Z,99439.16
2022-09-28T16:15:18.140Z,99440.22
2022-09-28T16:17:51.029Z,99432.66
2022-09-28T16:20:22.245Z,99442.91
2022-09-28T16:22:50.365Z,99445.50
2022-09-28T16:25:23.001Z,99442.94
2022-09-28T16:27:51.827Z,99448.53
2022-09-28T16:30:24.114Z,99459.47
2022-09-28T16:32:54.213Z,99454.44
2022-09-28T16:35:26.517Z,99461.06
2022-09-28T16:38:03.397Z,99457.41
2022-09-28T16:40:32.502Z,99458.75
2022-09-28T16:43:03.055Z,99460.50
2022-09-28T16:45:31.131Z,99450.78
2022-09-28T16:47:59.015Z,99451.72
2022-09-28T16:50:28.223Z,99452.16
2022-09-28T16:53:27.607Z,99454.44
2022-09-28T16:55:55.543Z,99455.41
2022-09-28T16:58:25.074Z,99462.66
2022-09-28T17:00:54.534Z,99464.81
2022-09-28T17:03:23.380Z,99471.72
2022-09-28T17:05:53.538Z,99467.38
2022-09-28T17:08:22.551Z,99477.03
2022-09-28T17:11:14.519Z,99480.75
2022-09-28T17:13:41.503Z,99480.56
2022-09-28T17:16:13.134Z,99488.81
2022-09-28T17:18:41.261Z,99490.00
2022-09-28T17:21:15.666Z,99492.44
2022-09-28T17:23:43.739Z,99487.88
2022-09-28T17:26:18.547Z,99502.94
2022-09-28T17:28:46.755Z,99496.59
2022-09-28T17:31:16.666Z,99496.22
2022-09-28T17:33:44.880Z,99502.56
2022-09-28T17:36:16.457Z,99508.81
2022-09-28T17:38:44.919Z,99512.72
2022-09-28T17:41:16.807Z,99516.34
2022-09-28T17:43:47.434Z,99520.75
2022-09-28T17:46:26.310Z,99523.28
2022-09-28T17:48:57.514Z,99526.75
2022-09-28T17:51:27.274Z,99531.94
2022-09-28T17:53:56.113Z,99527.63
2022-09-28T17:56:27.489Z,99525.31
2022-09-28T17:59:00.593Z,99525.34
2022-09-28T18:01:33.746Z,99541.13
2022-09-28T18:04:02.534Z,99549.94
2022-09-28T18:06:33.511Z,99552.75
2022-09-28T18:09:01.843Z,99551.13
2022-09-28T18:11:29.797Z,99554.75
2022-09-28T18:13:57.753Z,99562.72
2022-09-28T18:16:27.796Z,99565.38
2022-09-28T18:18:55.876Z,99559.47
2022-09-28T18:21:23.806Z,99562.06
2022-09-28T18:23:53.058Z,99567.34
2022-09-28T18:26:20.923Z,99568.53
2022-09-28T18:28:48.780Z,99572.97
2022-09-28T18:31:19.207Z,99580.88
2022-09-28T18:33:48.265Z,99578.47
2022-09-28T18:36:16.324Z,99585.47
2022-09-28T18:38:44.208Z,99585.75
2022-09-28T18:41:16.384Z,99585.50
2022-09-28T18:43:48.864Z,99594.13
2022-09-28T18:46:17.675Z,99596.06
2022-09-28T18:48:47.368Z,99595.25
2022-09-28T18:51:15.461Z,99595.13
2022-09-28T18:53:43.577Z,99605.50
2022-09-28T18:56:14.871Z,99610.56
2022-09-28T18:58:43.810Z,99606.94
2022-09-28T19:01:29.355Z,99605.38
2022-09-28T19:04:00.036Z,99612.13
2022-09-28T19:06:28.815Z,99610.44
2022-09-28T19:08:57.898Z,99617.19
2022-09-28T19:11:27.651Z,99623.28
2022-09-28T19:13:56.554Z,99621.59
2022-09-28T19:16:26.034Z,99616.34
2022-09-28T19:18:54.178Z,99623.94
2022-09-28T19:21:22.386Z,99624.09
2022-09-28T19:23:53.559Z,99630.16
2022-09-28T19:26:23.499Z,99626.59
2022-09-28T19:28:53.546Z,99627.53
2022-09-28T19:31:22.512Z,99626.00
2022-09-28T19:33:50.835Z,99632.19
2022-09-28T19:36:21.786Z,99632.09
2022-09-28T19:38:49.682Z,99636.53
2022-09-28T19:41:39.406Z,99628.84
2022-09-28T19:44:13.483Z,99637.69
2022-09-28T19:46:41.885Z,99639.31
2022-09-28T19:49:11.353Z,99642.97
2022-09-28T19:51:51.477Z,99642.25
2022-09-28T19:54:33.149Z,99640.44
2022-09-28T19:57:07.578Z,99652.13
2022-09-28T19:59:37.959Z,99646.00
2022-09-28T20:02:07.490Z,99651.19
2022-09-28T20:04:35.791Z,99651.19
2022-09-28T20:07:04.230Z,99648.59
2022-09-28T20:09:32.629Z,99650.28
2022-09-28T20:12:00.437Z,99653.69
2022-09-28T20:14:33.149Z,99652.44
2022-09-28T20:17:05.909Z,99656.91
2022-09-28T20:19:33.797Z,99652.56
2022-09-28T20:22:02.991Z,99659.59
2022-09-28T20:24:31.574Z,99658.88
2022-09-28T20:27:01.367Z,99660.19
2022-09-28T20:29:31.428Z,99665.38
2022-09-28T20:32:00.376Z,99664.56
2022-09-28T20:34:29.919Z,99664.34
2022-09-28T20:36:57.804Z,99666.31
2022-09-28T20:39:26.103Z,99659.59
2022-09-28T20:41:56.254Z,99655.44
2022-09-28T20:44:24.442Z,99651.78
2022-09-28T20:46:52.655Z,99658.16
2022-09-28T20:49:20.790Z,99645.78
2022-09-28T20:51:50.067Z,99658.25
2022-09-28T20:54:18.295Z,99646.94
2022-09-28T20:56:48.066Z,99645.31
2022-09-28T20:59:16.466Z,99641.25
2022-09-28T21:01:44.521Z,99635.97
2022-09-28T21:04:12.697Z,99631.31
2022-09-28T21:06:42.184Z,99632.22
2022-09-28T21:09:13.047Z,99638.56
2022-09-28T21:11:41.488Z,99630.00
2022-09-28T21:14:10.320Z,99632.81
2022-09-28T21:16:38.820Z,99641.31
2022-09-28T21:19:06.638Z,99639.53
2022-09-28T21:21:34.739Z,99639.97
2022-09-28T21:24:03.112Z,99646.84
2022-09-28T21:26:32.924Z,99645.13
2022-09-28T21:29:02.035Z,99649.69
2022-09-28T21:31:32.428Z,99650.44
2022-09-28T21:34:00.836Z,99656.59
2022-09-28T21:36:28.859Z,99653.34
2022-09-28T21:38:56.777Z,99667.31
2022-09-28T21:41:24.785Z,99655.94
2022-09-28T21:43:54.022Z,99669.47
2022-09-28T21:46:21.964Z,99672.28
2022-09-28T21:48:53.354Z,99676.91
2022-09-28T21:51:21.517Z,99675.91
2022-09-28T21:53:49.710Z,99674.53
2022-09-28T21:56:17.639Z,99685.03
2022-09-28T21:58:45.451Z,99685.06
2022-09-28T22:01:16.519Z,99693.84
2022-09-28T22:03:46.572Z,99688.25
2022-09-28T22:06:15.168Z,99683.44
2022-09-28T22:08:43.008Z,99680.91
2022-09-28T22:11:12.418Z,99688.09
2022-09-28T22:13:42.146Z,99695.34
2022-09-28T22:16:10.650Z,99695.56
2022-09-28T22:18:40.490Z,99697.44
2022-09-28T22:21:10.005Z,99691.72
2022-09-28T22:23:38.837Z,99691.94
2022-09-28T22:26:08.399Z,99697.25
2022-09-28T22:28:36.323Z,99705.06
2022-09-28T22:31:04.895Z,99696.66
2022-09-28T22:33:32.770Z,99702.00
2022-09-28T22:36:02.470Z,99705.50
2022-09-28T22:38:32.510Z,99700.44
2022-09-28T22:41:00.523Z,99707.25
2022-09-28T22:43:28.528Z,99704.84
2022-09-28T22:46:03.314Z,99701.56
2022-09-28T22:48:31.320Z,99700.03
2022-09-28T22:50:59.501Z,99712.22
2022-09-28T22:53:29.453Z,99709.56
2022-09-28T22:55:57.774Z,99702.88
2022-09-28T22:58:26.101Z,99708.94
2022-09-28T23:00:53.979Z,99709.06
2022-09-28T23:03:21.827Z,99701.97
2022-09-28T23:05:54.005Z,99703.75
2022-09-28T23:08:21.947Z,99708.09
2022-09-28T23:10:51.710Z,99709.03
2022-09-28T23:13:19.543Z,99708.34
2022-09-28T23:15:55.961Z,99705.47
2022-09-28T23:18:23.992Z,99712.47
2022-09-28T23:20:55.313Z,99709.13
2022-09-28T23:23:23.338Z,99708.41
2022-09-28T23:25:52.679Z,99704.19
2022-09-28T23:28:22.233Z,99713.50
2022-09-28T23:30:50.688Z,99706.47
2022-09-28T23:33:20.030Z,99705.00
2022-09-28T23:35:48.167Z,99708.34
2022-09-28T23:38:17.917Z,99703.44
2022-09-28T23:40:46.328Z,99699.19
2022-09-28T23:43:15.803Z,99696.66
2022-09-28T23:45:43.963Z,99698.47
2022-09-28T23:48:14.919Z,99695.03
2022-09-28T23:50:43.078Z,99694.22
2022-09-28T23:53:11.799Z,99690.78
2022-09-28T23:55:39.684Z,99694.22
2022-09-28T23:58:07.691Z,99690.81
